createdAt,value
2022-09-28T00:01:24.472Z,99561.41
2022-09-28T00:03:57.431Z,99550.97
2022-09-28T00:06:30.183Z,99558.78
2022-09-28T00:08:59.251Z,99552.72
2022-09-28T00:11:29.060Z,99551.84
2022-09-28T00:14:02.540Z,99557.06
2022-09-28T00:16:34.559Z,99555.31
2022-09-28T00:19:04.863Z,99555.31
2022-09-28T00:21:37.422Z,99552.75
2022-09-28T00:24:15.032Z,99554.50
2022-09-28T00:26:48.164Z,99556.25
2022-09-28T00:29:23.906Z,99562.31
2022-09-28T00:31:57.010Z,99558.88
2022-09-28T00:34:25.350Z,99562.38
2022-09-28T00:36:54.990Z,99562.38
2022-09-28T00:39:23.234Z,99558.03
2022-09-28T00:41:51.784Z,99560.69
2022-09-28T00:44:46.657Z,99558.13
2022-09-28T00:47:41.197Z,99556.41
2022-09-28T00:50:18.704Z,99552.06
2022-09-28T00:52:55.017Z,99553.00
2022-09-28T00:55:32.161Z,99550.41
2022-09-28T00:58:02.010Z,99547.84
2022-09-28T01:00:30.322Z,99550.47
2022-09-28T01:03:00.700Z,99544.41
2022-09-28T01:05:29.463Z,99547.03
2022-09-28T01:08:00.669Z,99545.31
2022-09-28T01:10:31.006Z,99545.31
2022-09-28T01:12:59.804Z,99540.13
2022-09-28T01:15:30.355Z,99540.16
2022-09-28T01:18:09.351Z,99534.09
2022-09-28T01:21:02.469Z,99536.72
2022-09-28T01:24:09.567Z,99532.41
2022-09-28T01:27:01.801Z,99528.09
2022-09-28T01:29:42.074Z,99525.50
2022-09-28T01:32:20.942Z,99521.16
2022-09-28T01:34:58.612Z,99525.50
2022-09-28T01:37:33.662Z,99521.22
2022-09-28T01:40:04.070Z,99520.38
2022-09-28T01:42:37.547Z,99521.25
2022-09-28T01:45:12.679Z,99524.75
2022-09-28T01:47:42.216Z,99519.53
2022-09-28T01:50:15.681Z,99522.16
2022-09-28T01:52:51.235Z,99507.44
2022-09-28T01:55:29.191Z,99512.66
2022-09-28T01:58:05.893Z,99515.25
2022-09-28T02:00:41.527Z,99519.59
2022-09-28T02:03:16.751Z,99514.41
2022-09-28T02:05:50.778Z,99512.66
2022-09-28T02:08:26.910Z,99506.63
2022-09-28T02:11:02.878Z,99510.09
2022-09-28T02:13:39.145Z,99513.56
2022-09-28T02:16:15.700Z,99519.63
2022-09-28T02:18:45.330Z,99517.91
2022-09-28T02:21:19.668Z,99522.25
2022-09-28T02:23:55.092Z,99524.03
2022-09-28T02:26:28.513Z,99521.41
2022-09-28T02:28:58.190Z,99520.53
2022-09-28T02:31:27.944Z,99524.00
2022-09-28T02:33:58.584Z,99517.91
2022-09-28T02:36:27.643Z,99527.44
2022-09-28T02:38:58.324Z,99522.22
2022-09-28T02:41:43.113Z,99523.06
2022-09-28T02:44:31.726Z,99530.84
2022-09-28T02:47:06.496Z,99531.63
2022-09-28T02:49:44.257Z,99525.50
2022-09-28T02:52:38.425Z,99520.22
2022-09-28T02:55:30.533Z,99527.13
2022-09-28T02:58:18.266Z,99523.56
2022-09-28T03:00:58.562Z,99520.94
2022-09-28T03:03:35.724Z,99523.47
2022-09-28T03:06:10.436Z,99525.16
2022-09-28T03:08:42.240Z,99523.31
2022-09-28T03:11:17.623Z,99523.28
2022-09-28T03:13:46.266Z,99522.34
2022-09-28T03:16:18.846Z,99520.59
2022-09-28T03:18:48.626Z,99525.78
2022-09-28T03:21:17.398Z,99521.38
2022-09-28T03:23:47.284Z,99522.19
2022-09-28T03:26:16.797Z,99522.19
2022-09-28T03:28:45.383Z,99532.56
2022-09-28T03:31:14.946Z,99522.91
2022-09-28T03:33:43.148Z,99519.44
2022-09-28T03:36:11.293Z,99530.72
2022-09-28T03:38:39.902Z,99534.19
2022-09-28T03:41:09.395Z,99533.28
2022-09-28T03:43:37.510Z,99532.38
2022-09-28T03:46:06.003Z,99535.00
2022-09-28T03:48:37.580Z,99528.03
2022-09-28T03:51:09.227Z,99530.63
2022-09-28T03:53:38.247Z,99523.59
2022-09-28T03:56:09.223Z,99528.81
2022-09-28T03:58:37.463Z,99528.81
2022-09-28T04:01:09.250Z,99521.91
2022-09-28T04:03:41.319Z,99528.06
2022-09-28T04:06:09.889Z,99522.84
2022-09-28T04:08:38.090Z,99530.69
2022-09-28T04:11:06.543Z,99522.03
2022-09-28T04:13:34.673Z,99522.00
2022-09-28T04:16:03.814Z,99527.22
2022-09-28T04:18:33.552Z,99522.94
2022-09-28T04:21:06.659Z,99518.59
2022-09-28T04:23:36.722Z,99523.81
2022-09-28T04:26:06.125Z,99520.34
2022-09-28T04:28:57.649Z,99521.28
2022-09-28T04:31:25.864Z,99525.69
2022-09-28T04:33:54.051Z,99529.19
2022-09-28T04:36:25.001Z,99534.38
2022-09-28T04:38:53.759Z,99534.41
2022-09-28T04:41:23.157Z,99527.50
2022-09-28T04:43:51.749Z,99530.88
2022-09-28T04:46:20.467Z,99534.34
2022-09-28T04:48:48.648Z,99541.31
2022-09-28T04:51:16.782Z,99530.84
2022-09-28T04:53:46.276Z,99539.56
2022-09-28T04:56:16.171Z,99541.34
2022-09-28T04:58:48.982Z,99535.28
2022-09-28T05:01:23.517Z,99539.63
2022-09-28T05:03:52.091Z,99537.88
2022-09-28T05:06:21.011Z,99537.91
2022-09-28T05:08:50.507Z,99536.22
2022-09-28T05:11:19.835Z,99543.22
2022-09-28T05:13:48.849Z,99543.22
2022-09-28T05:16:17.819Z,99539.78
2022-09-28T05:18:45.946Z,99544.16
2022-09-28T05:21:19.529Z,99547.66
2022-09-28T05:23:49.777Z,99545.94
2022-09-28T05:26:18.058Z,99534.66
2022-09-28T05:28:46.363Z,99537.25
2022-09-28T05:31:14.989Z,99539.00
2022-09-28T05:33:43.276Z,99539.03
2022-09-28T05:36:12.061Z,99540.75
2022-09-28T05:38:40.192Z,99546.00
2022-09-28T05:41:09.715Z,99531.25
2022-09-28T05:43:38.451Z,99535.56
2022-09-28T05:46:07.517Z,99532.97
2022-09-28T05:48:35.835Z,99532.09
2022-09-28T05:51:04.125Z,99529.50
2022-09-28T05:53:32.297Z,99536.44
2022-09-28T05:56:00.807Z,99527.75
2022-09-28T05:58:30.899Z,99526.91
2022-09-28T06:00:59.758Z,99533.84
2022-09-28T06:03:28.418Z,99539.94
2022-09-28T06:05:56.621Z,99534.72
2022-09-28T06:08:24.819Z,99536.44
2022-09-28T06:10:52.856Z,99541.66
2022-09-28T06:13:21.033Z,99537.25
2022-09-28T06:15:50.571Z,99547.69
2022-09-28T06:18:18.709Z,99551.16
2022-09-28T06:20:49.476Z,99554.59
2022-09-28T06:23:17.818Z,99552.81
2022-09-28T06:25:45.964Z,99559.75
2022-09-28T06:28:16.103Z,99560.56
2022-09-28T06:30:45.049Z,99562.28
2022-09-28T06:33:16.408Z,99564.00
2022-09-28T06:35:44.809Z,99565.75
2022-09-28T06:38:13.228Z,99568.38
2022-09-28T06:40:41.555Z,99575.31
2022-09-28T06:43:14.941Z,99577.91
2022-09-28T06:45:44.496Z,99577.88
2022-09-28T06:48:14.982Z,99580.44
2022-09-28T06:50:43.535Z,99583.00
2022-09-28T06:53:14.820Z,99582.09
2022-09-28T06:55:46.063Z,99586.44
2022-09-28T06:58:17.064Z,99582.09
2022-09-28T07:00:45.570Z,99579.50
2022-09-28T07:03:17.789Z,99582.06
2022-09-28T07:05:48.904Z,99588.19
2022-09-28T07:08:18.130Z,99585.56
2022-09-28T07:10:48.894Z,99591.69
2022-09-28T07:13:44.218Z,99589.09
2022-09-28T07:16:07.201Z,99596.00
2022-09-28T07:18:36.641Z,99588.19
2022-09-28T07:21:08.143Z,99600.38
2022-09-28T07:23:49.523Z,99589.94
2022-09-28T07:26:23.330Z,99596.88
2022-09-28T07:28:52.592Z,99600.34
2022-09-28T07:31:20.872Z,99593.38
2022-09-28T07:33:53.942Z,99605.50
2022-09-28T07:36:22.862Z,99598.50
2022-09-28T07:38:51.210Z,99599.28
2022-09-28T07:41:27.275Z,99603.53
2022-09-28T07:43:55.411Z,99609.53
2022-09-28T07:46:23.671Z,99608.66
2022-09-28T07:48:53.659Z,99608.66
2022-09-28T07:51:22.137Z,99613.94
2022-09-28T07:53:50.299Z,99606.97
2022-09-28T07:56:20.157Z,99616.53
2022-09-28T07:58:49.711Z,99615.66
2022-09-28T08:01:19.224Z,99619.97
2022-09-28T08:03:48.523Z,99621.66
2022-09-28T08:06:18.759Z,99625.94
2022-09-28T08:08:46.849Z,99625.84
2022-09-28T08:11:18.814Z,99624.88
2022-09-28T08:13:48.200Z,99632.63
2022-09-28T08:16:16.522Z,99625.53
2022-09-28T08:18:44.710Z,99628.88
2022-09-28T08:21:30.253Z,99630.31
2022-09-28T08:23:59.865Z,99632.75
2022-09-28T08:26:29.017Z,99631.66
2022-09-28T08:28:57.272Z,99641.09
2022-09-28T08:31:25.933Z,99637.44
2022-09-28T08:33:54.390Z,99642.53
2022-09-28T08:36:22.584Z,99647.63
2022-09-28T08:38:51.094Z,99645.81
2022-09-28T08:41:35.849Z,99651.78
2022-09-28T08:44:19.318Z,99657.75
2022-09-28T08:46:51.259Z,99659.13
2022-09-28T08:49:26.795Z,99663.88
2022-09-28T08:52:01.229Z,99672.84
2022-09-28T08:54:39.686Z,99666.16
2022-09-28T08:57:15.839Z,99674.50
2022-09-28T08:59:51.247Z,99668.06
2022-09-28T09:02:27.156Z,99672.28
2022-09-28T09:04:56.974Z,99677.75
2022-09-28T09:07:48.398Z,99681.50
2022-09-28T09:10:49.884Z,99678.09
2022-09-28T09:13:41.377Z,99683.97
2022-09-28T09:16:20.625Z,99688.16
2022-09-28T09:18:55.643Z,99681.03
2022-09-28T09:21:42.594Z,99687.06
2022-09-28T09:24:27.155Z,99687.75
2022-09-28T09:27:07.640Z,99687.53
2022-09-28T09:30:01.951Z,99687.38
2022-09-28T09:33:10.873Z,99693.38
2022-09-28T09:36:00.695Z,99694.19
2022-09-28T09:38:45.993Z,99694.78
2022-09-28T09:41:30.145Z,99695.19
2022-09-28T09:44:21.143Z,99704.38
2022-09-28T09:46:57.625Z,99704.25
2022-09-28T09:49:31.980Z,99704.16
2022-09-28T09:52:08.086Z,99696.28
2022-09-28T09:54:40.672Z,99704.69
2022-09-28T09:57:14.591Z,99708.81
2022-09-28T09:59:44.539Z,99710.50
2022-09-28T10:02:24.653Z,99710.34
2022-09-28T10:04:58.383Z,99707.19
2022-09-28T10:07:39.333Z,99709.50
2022-09-28T10:10:17.132Z,99712.94
2022-09-28T10:12:45.314Z,99715.44
2022-09-28T10:15:20.842Z,99705.41
2022-09-28T10:17:50.521Z,99706.78
2022-09-28T10:20:19.850Z,99710.94
2022-09-28T10:22:48.212Z,99712.44
2022-09-28T10:25:16.887Z,99707.56
2022-09-28T10:27:49.271Z,99709.09
2022-09-28T10:30:20.535Z,99708.75
2022-09-28T10:32:52.440Z,99711.88
2022-09-28T10:35:26.971Z,99713.31
2022-09-28T10:37:59.971Z,99706.13
2022-09-28T10:40:43.520Z,99704.25
2022-09-28T10:43:23.470Z,99709.22
2022-09-28T10:46:02.121Z,99713.47
2022-09-28T10:48:46.820Z,99718.63
2022-09-28T10:51:15.150Z,99717.59
2022-09-28T10:53:43.258Z,99723.91
2022-09-28T10:56:21.681Z,99718.69
2022-09-28T10:58:49.971Z,99713.44
2022-09-28T11:01:21.658Z,99717.06
2022-09-28T11:03:56.622Z,99716.00
2022-09-28T11:06:27.640Z,99713.56
2022-09-28T11:09:00.812Z,99709.38
2022-09-28T11:11:31.502Z,99717.66
2022-09-28T11:14:03.447Z,99712.97
2022-09-28T11:16:35.923Z,99714.06
2022-09-28T11:19:30.415Z,99705.88
2022-09-28T11:21:58.635Z,99707.69
2022-09-28T11:24:27.099Z,99704.31
2022-09-28T11:26:57.668Z,99708.78
2022-09-28T11:29:35.035Z,99713.00
2022-09-28T11:32:05.253Z,99711.34
2022-09-28T11:34:58.207Z,99706.63
2022-09-28T11:38:04.796Z,99706.84
2022-09-28T11:40:50.174Z,99708.53
2022-09-28T11:43:40.714Z,99705.06
2022-09-28T11:46:17.209Z,99701.97
2022-09-28T11:48:50.983Z,99699.13
2022-09-28T11:51:27.149Z,99702.31
2022-09-28T11:53:58.223Z,99705.34
2022-09-28T11:56:36.110Z,99702.28
2022-09-28T11:59:11.908Z,99696.28
2022-09-28T12:01:45.381Z,99699.97
2022-09-28T12:04:19.042Z,99702.66
2022-09-28T12:06:54.899Z,99704.91
2022-09-28T12:09:29.048Z,99712.19
2022-09-28T12:12:03.838Z,99712.03
2022-09-28T12:14:40.530Z,99702.72
2022-09-28T12:17:20.537Z,99702.63
2022-09-28T12:19:53.469Z,99702.38
2022-09-28T12:22:28.038Z,99699.69
2022-09-28T12:24:59.257Z,99698.63
2022-09-28T12:27:38.747Z,99693.75
2022-09-28T12:30:15.685Z,99691.47
2022-09-28T12:32:49.697Z,99692.56
2022-09-28T12:35:29.531Z,99688.19
2022-09-28T12:38:21.327Z,99681.69
2022-09-28T12:40:57.967Z,99689.19
2022-09-28T12:43:49.574Z,99691.34
2022-09-28T12:46:55.267Z,99684.59
2022-09-28T12:51:02.363Z,99682.75
2022-09-28T12:52:57.019Z,99677.38
2022-09-28T12:55:45.162Z,99692.94
2022-09-28T12:58:40.081Z,99687.25
2022-09-28T13:01:29.173Z,99694.03
2022-09-28T13:04:20.221Z,99697.22
2022-09-28T13:07:05.020Z,99691.06
2022-09-28T13:09:45.913Z,99687.97
2022-09-28T13:12:32.473Z,99698.09
2022-09-28T13:15:45.047Z,99695.16
2022-09-28T13:18:23.835Z,99689.72
2022-09-28T13:21:09.380Z,99693.22
2022-09-28T13:23:41.595Z,99694.53
2022-09-28T13:26:18.392Z,99698.28
2022-09-28T13:28:50.291Z,99690.84
2022-09-28T13:31:25.818Z,99693.72
2022-09-28T13:33:58.337Z,99686.06
2022-09-28T13:36:47.137Z,99700.44
2022-09-28T13:39:37.674Z,99697.44
2022-09-28T13:42:09.215Z,99696.19
2022-09-28T13:45:09.476Z,99699.31
2022-09-28T13:48:05.234Z,99692.44
2022-09-28T13:51:06.130Z,99690.56
2022-09-28T13:54:04.482Z,99696.53
2022-09-28T13:56:44.376Z,99699.84
2022-09-28T13:59:20.629Z,99705.16
2022-09-28T14:01:57.064Z,99702.72
2022-09-28T14:04:47.682Z,99704.59
2022-09-28T14:07:21.852Z,99714.91
2022-09-28T14:10:15.344Z,99711.13
2022-09-28T14:12:49.547Z,99716.69
2022-09-28T14:15:43.905Z,99714.16
2022-09-28T14:18:23.371Z,99714.13
2022-09-28T14:21:04.507Z,99713.03
2022-09-28T14:24:10.701Z,99710.78
2022-09-28T14:27:24.800Z,99712.34
2022-09-28T14:30:08.357Z,99722.53
2022-09-28T14:32:38.935Z,99715.81
2022-09-28T14:35:19.056Z,99714.69
2022-09-28T14:38:08.243Z,99716.56
2022-09-28T14:41:13.750Z,99719.72
2022-09-28T14:44:09.213Z,99711.34
2022-09-28T14:46:44.756Z,99718.66
2022-09-28T14:50:01.115Z,99722.91
2022-09-28T14:52:48.216Z,99710.91
2022-09-28T14:55:20.393Z,99707.66
2022-09-28T14:57:55.109Z,99713.09
2022-09-28T15:00:27.276Z,99710.94
2022-09-28T15:03:01.148Z,99722.34
2022-09-28T15:05:33.913Z,99731.75
2022-09-28T15:08:03.856Z,99729.81
2022-09-28T15:10:34.522Z,99734.84
2022-09-28T15:13:05.932Z,99736.13
2022-09-28T15:15:37.496Z,99740.16
2022-09-28T15:19:03.207Z,99738.84
2022-09-28T15:21:38.870Z,99737.38
2022-09-28T15:24:28.288Z,99750.75
2022-09-28T15:26:56.712Z,99747.84
2022-09-28T15:29:27.308Z,99752.19
2022-09-28T15:31:55.672Z,99756.28
2022-09-28T15:34:54.600Z,99755.25
2022-09-28T15:37:26.128Z,99755.88
2022-09-28T15:40:10.142Z,99761.47
2022-09-28T15:42:38.505Z,99766.94
2022-09-28T15:45:28.640Z,99768.09
2022-09-28T15:48:19.446Z,99768.19
2022-09-28T15:51:10.717Z,99761.50
2022-09-28T15:53:44.563Z,99769.63
2022-09-28T15:56:14.103Z,99770.66
2022-09-28T15:58:42.738Z,99775.16
2022-09-28T16:01:36.411Z,99772.66
2022-09-28T16:04:37.224Z,99775.69
2022-09-28T16:07:24.807Z,99771.63
2022-09-28T16:10:04.778Z,99783.19
2022-09-28T16:12:48.033Z,99786.69
2022-09-28T16:15:23.892Z,99783.84
2022-09-28T16:17:56.272Z,99778.75
2022-09-28T16:20:32.035Z,99776.44
2022-09-28T16:23:06.030Z,99780.50
2022-09-28T16:25:39.427Z,99780.25
2022-09-28T16:28:51.819Z,99778.66
2022-09-28T16:31:33.616Z,99781.41
2022-09-28T16:34:17.389Z,99779.47
2022-09-28T16:36:48.077Z,99789.69
2022-09-28T16:39:17.704Z,99777.97
2022-09-28T16:41:50.633Z,99780.28
2022-09-28T16:44:25.754Z,99777.41
2022-09-28T16:46:57.039Z,99779.69
2022-09-28T16:49:26.322Z,99787.13
2022-09-28T16:51:54.656Z,99781.34
2022-09-28T16:54:42.983Z,99786.03
2022-09-28T16:57:13.816Z,99784.63
2022-09-28T16:59:43.494Z,99785.03
2022-09-28T17:05:10.217Z,99796.56
2022-09-28T17:07:38.974Z,99798.72
2022-09-28T17:10:18.624Z,99795.72
2022-09-28T17:12:47.531Z,99801.41
2022-09-28T17:15:19.456Z,99802.66
2022-09-28T17:17:47.813Z,99808.19
2022-09-28T17:20:22.503Z,99800.69
2022-09-28T17:22:50.766Z,99808.91
2022-09-28T17:25:20.240Z,99813.56
2022-09-28T17:27:50.064Z,99813.84
2022-09-28T17:30:23.613Z,99817.66
2022-09-28T17:32:53.853Z,99826.63
2022-09-28T17:35:25.133Z,99824.28
2022-09-28T17:37:54.278Z,99823.66
2022-09-28T17:40:25.559Z,99823.84
2022-09-28T17:42:55.114Z,99832.78
2022-09-28T17:45:26.920Z,99824.22
2022-09-28T17:47:55.374Z,99830.53
2022-09-28T17:50:27.335Z,99831.59
2022-09-28T17:52:57.817Z,99836.13
2022-09-28T17:55:31.478Z,99829.31
2022-09-28T17:58:00.992Z,99833.88
2022-09-28T18:00:30.519Z,99836.63
2022-09-28T18:02:59.569Z,99834.13
2022-09-28T18:05:29.239Z,99833.41
2022-09-28T18:07:58.751Z,99832.66
2022-09-28T18:10:27.504Z,99828.38
2022-09-28T18:12:55.763Z,99834.59
2022-09-28T18:15:24.167Z,99830.31
2022-09-28T18:17:53.700Z,99834.78
2022-09-28T18:20:22.160Z,99840.13
2022-09-28T18:22:50.314Z,99840.22
2022-09-28T18:25:18.753Z,99842.06
2022-09-28T18:27:46.929Z,99836.03
2022-09-28T18:30:15.198Z,99845.69
2022-09-28T18:32:43.372Z,99849.28
2022-09-28T18:35:13.050Z,99858.06
2022-09-28T18:37:42.059Z,99852.91
2022-09-28T18:40:12.726Z,99856.44
2022-09-28T18:42:41.722Z,99859.97
2022-09-28T18:45:12.268Z,99852.16
2022-09-28T18:47:40.984Z,99856.59
2022-09-28T18:50:13.005Z,99866.25
2022-09-28T18:52:41.850Z,99859.31
2022-09-28T18:55:11.625Z,99866.34
2022-09-28T18:57:41.365Z,99865.53
2022-09-28T19:00:12.481Z,99880.41
2022-09-28T19:02:41.217Z,99867.38
2022-09-28T19:05:09.889Z,99869.16
2022-09-28T19:07:39.377Z,99875.25
2022-09-28T19:10:09.141Z,99878.75
2022-09-28T19:12:37.385Z,99874.44
2022-09-28T19:15:06.450Z,99875.38
2022-09-28T19:17:34.811Z,99884.09
2022-09-28T19:20:03.648Z,99878.91
2022-09-28T19:22:31.773Z,99881.56
2022-09-28T19:25:01.324Z,99885.09
2022-09-28T19:27:29.839Z,99893.81
2022-09-28T19:29:57.953Z,99892.06
2022-09-28T19:32:26.065Z,99888.59
2022-09-28T19:34:54.207Z,99881.66
2022-09-28T19:37:22.552Z,99888.63
2022-09-28T19:39:50.652Z,99890.41
2022-09-28T19:42:20.106Z,99893.03
2022-09-28T19:44:48.241Z,99897.41
2022-09-28T19:47:17.208Z,99893.97
2022-09-28T19:49:46.716Z,99898.31
2022-09-28T19:52:16.970Z,99894.00
2022-09-28T19:54:52.029Z,99900.97
2022-09-28T19:57:21.561Z,99904.50
2022-09-28T19:59:52.718Z,99904.50
2022-09-28T20:02:21.767Z,99916.72
2022-09-28T20:04:50.543Z,99913.25
2022-09-28T20:07:18.622Z,99911.53
2022-09-28T20:09:46.746Z,99915.03
2022-09-28T20:12:14.885Z,99918.53
2022-09-28T20:14:44.501Z,99915.06
2022-09-28T20:17:12.823Z,99919.44
2022-09-28T20:19:40.997Z,99915.09
2022-09-28T20:22:09.209Z,99914.25
2022-09-28T20:24:37.290Z,99916.88
2022-09-28T20:27:05.497Z,99919.47
2022-09-28T20:29:34.701Z,99920.38
2022-09-28T20:32:04.859Z,99919.53
2022-09-28T20:34:33.536Z,99922.16
2022-09-28T20:37:02.291Z,99913.47
2022-09-28T20:39:30.474Z,99921.31
2022-09-28T20:41:58.593Z,99919.59
2022-09-28T20:44:26.711Z,99919.59
2022-09-28T20:46:56.234Z,99923.06
2022-09-28T20:49:27.127Z,99916.94
2022-09-28T20:51:55.389Z,99921.34
2022-09-28T20:54:23.531Z,99916.97
2022-09-28T20:56:51.622Z,99924.78
2022-09-28T20:59:22.581Z,99918.72
2022-09-28T21:01:51.055Z,99917.00
2022-09-28T21:04:19.681Z,99917.00
2022-09-28T21:06:49.251Z,99924.81
2022-09-28T21:09:17.469Z,99924.81
2022-09-28T21:11:48.066Z,99923.97
2022-09-28T21:14:17.177Z,99921.34
2022-09-28T21:16:45.323Z,99923.94
2022-09-28T21:19:13.569Z,99930.91
2022-09-28T21:21:42.170Z,99932.66
2022-09-28T21:24:13.512Z,99934.41
2022-09-28T21:26:41.640Z,99936.16
2022-09-28T21:29:14.829Z,99931.81
2022-09-28T21:31:46.331Z,99936.16
2022-09-28T21:34:19.198Z,99940.53
2022-09-28T21:36:48.152Z,99936.19
2022-09-28T21:39:18.314Z,99939.66
2022-09-28T21:41:46.540Z,99934.44
2022-09-28T21:44:14.706Z,99939.66
2022-09-28T21:47:01.698Z,99944.88
2022-09-28T21:49:29.991Z,99942.28
2022-09-28T21:51:58.146Z,99944.03
2022-09-28T21:54:28.861Z,99955.31
2022-09-28T21:56:56.964Z,99951.84
2022-09-28T21:59:25.959Z,99953.56
2022-09-28T22:01:55.384Z,99952.69
2022-09-28T22:04:23.562Z,99952.72
2022-09-28T22:06:51.754Z,99951.84
2022-09-28T22:09:19.879Z,99953.56
2022-09-28T22:11:49.634Z,99953.56
2022-09-28T22:14:17.811Z,99958.78
2022-09-28T22:16:45.942Z,99953.59
2022-09-28T22:19:14.159Z,99962.28
2022-09-28T22:21:42.752Z,99970.97
2022-09-28T22:24:10.975Z,99974.41
2022-09-28T22:26:40.414Z,99966.59
2022-09-28T22:29:11.426Z,99971.81
2022-09-28T22:31:42.089Z,99977.91
2022-09-28T22:34:11.180Z,99978.75
2022-09-28T22:36:39.435Z,99975.28
2022-09-28T22:39:07.700Z,99978.75
2022-09-28T22:41:35.825Z,99985.69
2022-09-28T22:44:03.921Z,99983.09
2022-09-28T22:46:33.410Z,99985.69
2022-09-28T22:49:02.157Z,99988.28
2022-09-28T22:51:32.113Z,99983.97
2022-09-28T22:54:00.289Z,99983.94
2022-09-28T22:56:29.355Z,99984.81
2022-09-28T22:58:57.615Z,99987.44
2022-09-28T23:01:28.609Z,99981.34
2022-09-28T23:04:00.825Z,99981.38
2022-09-28T23:09:45.892Z,99995.22
2022-09-28T23:12:13.999Z,99988.28
2022-09-28T23:14:42.161Z,99996.97
2022-09-28T23:17:10.241Z,99996.06
2022-09-28T23:19:39.860Z,99994.34
2022-09-28T23:22:08.422Z,100002.16
2022-09-28T23:24:36.795Z,100004.78
2022-09-28T23:27:07.106Z,100002.16
2022-09-28T23:29:35.388Z,100002.16
2022-09-28T23:32:03.827Z,99996.09
2022-09-28T23:34:31.909Z,99999.53
2022-09-28T23:37:01.444Z,99994.31
2022-09-28T23:39:29.647Z,100003.88
2022-09-28T23:41:58.923Z,100002.13
2022-09-28T23:44:27.939Z,100002.97
2022-09-28T23:46:57.442Z,100002.13
2022-09-28T23:49:25.589Z,100003.81
2022-09-28T23:51:56.114Z,100004.69
2022-09-28T23:54:25.645Z,100002.94
2022-09-28T23:56:53.728Z,99993.38
2022-09-28T23:59:21.853Z,100003.78
